LIEE/CAG METAR and TAF weather

Enter ICAO airport designator
Station Type Date Time Source
LIEE METAR 2021/07/24 21:20 UTC NOAA

LIEE 242120Z 19006KT CAVOK 26/23 Q1011


Station Type Date Time Source
LIEE Decoded METAR 2021/07/24 21:20 UTC NOAA

Cagliari / Elmas, Italy (LIEE) 39-15N 009-04E 5M
Jul 24, 2021 - 05:20 PM EDT / 2021.07.24 2120 UTC
Wind: from the S (190 degrees) at 7 MPH (6 KT):0
Visibility: greater than 7 mile(s):0
Temperature: 78 F (26 C)
Dew Point: 73 F (23 C)
Relative Humidity: 83%
Pressure (altimeter): 29.85 in. Hg (1011 hPa)
ob: LIEE 242120Z 19006KT CAVOK 26/23 Q1011
cycle: 21

Station Type Date Time Source
LIEE TAF 2021/07/24 18:21 UTC NOAA

TAF LIEE 241700Z 2418/2518 18010KT 9999 FEW040
BECMG 2418/2420 VRB04KT
BECMG 2508/2510 16012KT
BECMG 2516/2518 VRB05KT

Example: see airport list